Time;durP1;ratioP1;P1;durP2;ratioP2;P2;SDS_P1;SDS_P2;PMS_P1;PMS_P2;Temp;Humidity;BMP_temperature;BMP_pressure;BME280_temperature;BME280_humidity;BME280_pressure;Samples;Min_cycle;Max_cycle;Signal;HPM_P1;HPM_P2
2023/07/15 00:00:04;;;;;;;8.63;4.60;;;22.30;99.90;;;;;;5011686;28;20576;-51
2023/07/15 00:02:31;;;;;;;2.70;2.50;;;22.20;99.90;;;;;;5011700;28;20289;-51
2023/07/15 00:05:01;;;;;;;2.63;2.53;;;22.50;99.90;;;;;;5010571;28;20211;-52
2023/07/15 00:07:27;;;;;;;2.30;2.30;;;22.30;99.90;;;;;;5012489;28;20219;-51
2023/07/15 00:09:54;;;;;;;2.63;2.53;;;22.30;99.90;;;;;;5012614;28;20261;-51
2023/07/15 00:12:21;;;;;;;3.47;2.50;;;22.40;99.90;;;;;;5012435;28;20203;-52
2023/07/15 00:14:48;;;;;;;2.17;2.17;;;22.30;99.90;;;;;;5010300;28;20199;-51
2023/07/15 00:17:15;;;;;;;2.50;2.40;;;22.30;99.90;;;;;;5011760;28;20223;-52
2023/07/15 00:19:43;;;;;;;2.67;2.23;;;22.30;99.90;;;;;;5011832;28;20257;-51
2023/07/15 00:22:13;;;;;;;2.20;2.20;;;22.30;99.90;;;;;;5008920;28;20231;-51
2023/07/15 00:24:42;;;;;;;2.07;1.97;;;22.40;99.90;;;;;;5010072;28;20329;-51
2023/07/15 00:27:09;;;;;;;3.40;2.77;;;22.40;99.90;;;;;;5017499;28;20223;-51
2023/07/15 00:29:36;;;;;;;2.33;2.13;;;22.50;99.90;;;;;;5010781;28;20219;-51
2023/07/15 00:32:04;;;;;;;2.53;2.40;;;22.60;99.90;;;;;;5010098;28;20223;-51
2023/07/15 00:34:32;;;;;;;2.70;2.60;;;22.70;99.90;;;;;;5009415;28;20657;-51
2023/07/15 00:37:00;;;;;;;4.40;2.10;;;22.70;99.90;;;;;;5010217;28;20199;-51
2023/07/15 00:39:28;;;;;;;2.80;2.60;;;22.70;99.90;;;;;;5008530;28;20203;-51
2023/07/15 00:41:58;;;;;;;2.20;2.00;;;22.70;99.90;;;;;;5009956;28;20196;-52
2023/07/15 00:44:25;;;;;;;2.70;2.50;;;22.70;99.90;;;;;;5009934;28;20697;-51
2023/07/15 00:47:21;;;;;;;1.93;1.93;;;22.70;99.90;;;;;;5011398;28;20269;-51
2023/07/15 00:49:49;;;;;;;2.23;2.13;;;22.70;99.90;;;;;;5010422;28;20226;-51
2023/07/15 00:52:20;;;;;;;2.50;2.40;;;22.70;99.90;;;;;;5011671;28;20245;-51
2023/07/15 00:54:52;;;;;;;2.70;2.50;;;22.70;99.90;;;;;;5012263;28;20231;-51
2023/07/15 00:57:20;;;;;;;2.37;2.27;;;22.70;99.90;;;;;;5011905;28;20800;-51
2023/07/15 00:59:51;;;;;;;2.40;2.27;;;22.70;99.90;;;;;;5011392;28;20282;-51
2023/07/15 01:02:20;;;;;;;2.07;2.00;;;22.70;99.90;;;;;;5010759;28;20204;-51
2023/07/15 01:04:50;;;;;;;2.57;2.47;;;22.70;99.90;;;;;;5011707;28;20423;-51
2023/07/15 01:07:17;;;;;;;2.73;2.63;;;22.60;99.90;;;;;;5011804;28;20783;-52
2023/07/15 01:09:46;;;;;;;2.47;2.37;;;22.50;99.90;;;;;;5011114;28;21074;-51
2023/07/15 01:12:13;;;;;;;2.00;1.90;;;22.50;99.90;;;;;;5011448;28;20192;-52
2023/07/15 01:14:42;;;;;;;2.03;1.70;;;22.50;99.90;;;;;;5011104;28;20199;-51
2023/07/15 01:17:09;;;;;;;2.67;2.50;;;22.50;99.90;;;;;;5003841;28;20293;-51
2023/07/15 01:19:37;;;;;;;1.83;1.80;;;22.40;99.90;;;;;;5010803;28;20230;-52
2023/07/15 01:22:07;;;;;;;1.90;1.80;;;22.30;99.90;;;;;;5010966;28;20623;-51
2023/07/15 01:24:36;;;;;;;2.17;2.17;;;22.30;99.90;;;;;;5012063;28;22109;-51
2023/07/15 01:27:06;;;;;;;1.50;1.50;;;22.20;99.90;;;;;;5010768;28;20210;-52
2023/07/15 01:29:33;;;;;;;3.93;1.87;;;22.00;99.90;;;;;;5012547;28;20269;-51
2023/07/15 01:32:01;;;;;;;3.53;1.53;;;21.90;99.90;;;;;;5015336;28;20249;-51
2023/07/15 01:34:30;;;;;;;1.97;1.87;;;22.00;99.90;;;;;;5015561;28;20298;-51
2023/07/15 01:36:57;;;;;;;1.93;1.83;;;22.00;99.90;;;;;;5015637;28;20253;-51
2023/07/15 01:39:25;;;;;;;2.63;1.73;;;22.10;99.90;;;;;;5014321;28;20203;-52
2023/07/15 01:41:55;;;;;;;5.53;3.20;;;22.10;99.90;;;;;;5015298;28;20282;-51
2023/07/15 01:44:23;;;;;;;2.00;2.00;;;22.10;99.90;;;;;;5015088;28;20704;-51
2023/07/15 01:46:50;;;;;;;1.97;1.87;;;22.10;99.90;;;;;;5015133;28;20624;-51
2023/07/15 01:49:17;;;;;;;1.97;1.87;;;22.10;99.90;;;;;;5014602;28;20199;-51
2023/07/15 01:51:44;;;;;;;2.47;2.27;;;22.00;99.90;;;;;;5014185;28;20211;-52
2023/07/15 01:54:10;;;;;;;2.07;1.80;;;22.00;99.90;;;;;;5014887;28;20207;-51
2023/07/15 01:56:41;;;;;;;1.90;1.70;;;21.90;99.90;;;;;;5013755;28;20258;-51
2023/07/15 01:59:11;;;;;;;2.40;2.23;;;21.80;99.90;;;;;;5007177;28;20250;-51
2023/07/15 02:01:40;;;;;;;3.07;2.90;;;21.80;99.90;;;;;;5015193;28;20214;-51
2023/07/15 02:04:07;;;;;;;2.00;1.90;;;21.80;99.90;;;;;;5013171;28;20257;-51
2023/07/15 02:06:34;;;;;;;1.70;1.63;;;21.70;99.90;;;;;;5014094;28;20697;-51
2023/07/15 02:09:01;;;;;;;1.77;1.77;;;21.70;99.90;;;;;;5014580;28;20219;-51
2023/07/15 02:11:28;;;;;;;2.47;2.37;;;21.60;99.90;;;;;;5015065;28;20230;-52
2023/07/15 02:13:55;;;;;;;2.43;2.10;;;21.60;99.90;;;;;;5014518;28;20676;-51
2023/07/15 02:16:23;;;;;;;2.17;2.07;;;21.50;99.90;;;;;;5011372;28;20658;-51
2023/07/15 02:18:50;;;;;;;3.70;2.20;;;21.50;99.90;;;;;;5014504;28;20293;-51
2023/07/15 02:21:19;;;;;;;3.00;2.40;;;21.50;99.90;;;;;;5014704;28;20203;-51
2023/07/15 02:23:46;;;;;;;2.30;2.20;;;21.50;99.90;;;;;;5014298;28;20203;-51
2023/07/15 02:26:13;;;;;;;2.23;2.13;;;21.40;99.90;;;;;;5014054;28;20277;-51
2023/07/15 02:28:40;;;;;;;2.33;2.20;;;21.40;99.90;;;;;;5013392;28;20239;-51
2023/07/15 02:31:07;;;;;;;2.07;1.97;;;21.50;99.90;;;;;;5014462;28;20199;-51
2023/07/15 02:33:35;;;;;;;1.83;1.73;;;21.40;99.90;;;;;;5014346;28;20619;-51
2023/07/15 02:36:04;;;;;;;1.77;1.77;;;21.40;99.90;;;;;;5013633;28;20226;-51
2023/07/15 02:38:31;;;;;;;2.50;2.40;;;21.40;99.90;;;;;;5014390;28;20350;-51
2023/07/15 02:40:58;;;;;;;2.63;2.60;;;21.50;99.90;;;;;;5013203;28;20253;-52
2023/07/15 02:43:25;;;;;;;2.17;2.07;;;21.40;99.90;;;;;;5013881;28;20199;-51
2023/07/15 02:45:53;;;;;;;2.83;2.60;;;21.40;99.90;;;;;;5013519;28;20293;-51
2023/07/15 02:48:20;;;;;;;2.07;1.97;;;21.40;99.90;;;;;;5013475;28;20222;-51
2023/07/15 02:50:52;;;;;;;4.03;2.83;;;21.50;99.90;;;;;;5014280;28;20206;-51
2023/07/15 02:53:19;;;;;;;2.20;2.20;;;21.40;99.90;;;;;;5013121;28;20199;-51
2023/07/15 02:55:46;;;;;;;2.07;1.97;;;21.50;99.90;;;;;;5013115;28;20665;-52
2023/07/15 02:58:14;;;;;;;2.37;2.20;;;21.50;99.90;;;;;;5013855;28;20302;-51
2023/07/15 03:00:41;;;;;;;2.50;2.03;;;21.40;99.90;;;;;;5013791;28;20346;-51
2023/07/15 03:03:09;;;;;;;2.23;2.17;;;21.40;99.90;;;;;;5013584;28;20253;-51
2023/07/15 03:05:36;;;;;;;2.20;2.00;;;21.40;99.90;;;;;;5013170;28;20223;-51
2023/07/15 03:08:05;;;;;;;2.07;1.97;;;21.40;99.90;;;;;;5013053;28;20246;-51
2023/07/15 03:10:32;;;;;;;4.00;2.50;;;21.40;99.90;;;;;;5013636;28;20258;-51
2023/07/15 03:12:59;;;;;;;2.20;2.10;;;21.40;99.90;;;;;;5013501;28;20203;-51
2023/07/15 03:15:25;;;;;;;2.60;2.40;;;21.30;99.90;;;;;;5013583;28;20727;-51
2023/07/15 03:17:52;;;;;;;2.40;2.23;;;21.40;99.90;;;;;;5012327;28;20274;-51
2023/07/15 03:20:20;;;;;;;3.13;2.87;;;21.30;99.90;;;;;;5013564;28;20211;-54
2023/07/15 03:22:47;;;;;;;2.87;2.67;;;21.40;99.90;;;;;;5013381;28;20303;-51
2023/07/15 03:25:16;;;;;;;2.03;1.90;;;21.50;99.90;;;;;;5013514;28;20215;-51
2023/07/15 03:27:44;;;;;;;2.73;2.63;;;21.50;99.90;;;;;;5044930;22;20257;-56
2023/07/15 03:30:11;;;;;;;2.63;2.37;;;21.50;99.90;;;;;;5051407;28;20202;-56
2023/07/15 03:32:41;;;;;;;1.87;1.77;;;21.50;99.90;;;;;;5052282;28;20202;-56
2023/07/15 03:35:09;;;;;;;1.93;1.93;;;21.50;99.90;;;;;;5032538;28;20233;-56
2023/07/15 03:37:37;;;;;;;2.80;2.63;;;21.50;99.90;;;;;;5045978;28;20229;-55
2023/07/15 03:40:07;;;;;;;2.70;2.53;;;21.50;99.90;;;;;;5052492;28;20236;-56
2023/07/15 03:42:35;;;;;;;3.90;2.30;;;21.50;99.90;;;;;;5050587;28;20721;-56
2023/07/15 03:45:03;;;;;;;7.60;3.00;;;21.40;99.90;;;;;;5051104;28;20217;-56
2023/07/15 03:47:30;;;;;;;2.27;1.97;;;21.50;99.90;;;;;;5051737;28;20222;-56
2023/07/15 03:49:57;;;;;;;3.17;2.60;;;21.50;99.90;;;;;;5052176;28;20194;-56
2023/07/15 03:52:24;;;;;;;2.37;2.17;;;21.50;99.90;;;;;;5050963;28;20225;-56
2023/07/15 03:54:51;;;;;;;2.80;2.70;;;21.50;99.90;;;;;;5051965;28;20275;-55
2023/07/15 03:57:18;;;;;;;2.80;2.60;;;21.50;99.90;;;;;;5050081;28;20656;-56
2023/07/15 03:59:46;;;;;;;3.33;2.50;;;21.50;99.90;;;;;;5051888;28;20251;-56
2023/07/15 04:02:13;;;;;;;2.37;2.27;;;21.50;99.90;;;;;;5051555;28;20206;-56
2023/07/15 04:04:40;;;;;;;4.10;2.87;;;21.50;99.90;;;;;;5051866;28;20205;-56
2023/07/15 04:07:08;;;;;;;3.33;2.93;;;21.50;99.90;;;;;;5050931;28;20567;-56
2023/07/15 04:09:36;;;;;;;3.43;3.30;;;21.40;99.90;;;;;;5044252;28;20224;-56
2023/07/15 04:12:03;;;;;;;2.90;2.63;;;21.50;99.90;;;;;;5034874;28;20214;-56
2023/07/15 04:14:30;;;;;;;2.73;2.53;;;21.50;99.90;;;;;;5034888;28;20229;-56
2023/07/15 04:16:58;;;;;;;2.57;2.43;;;21.60;99.90;;;;;;5043799;28;20194;-55
2023/07/15 04:19:25;;;;;;;2.70;2.60;;;21.60;99.90;;;;;;5036426;28;20214;-55
2023/07/15 04:21:52;;;;;;;3.50;2.47;;;21.70;99.90;;;;;;5031553;28;20198;-55
2023/07/15 04:24:19;;;;;;;2.47;2.33;;;21.80;99.90;;;;;;5030506;28;20202;-56
2023/07/15 04:26:46;;;;;;;3.87;3.53;;;21.80;99.90;;;;;;5031310;28;20288;-55
2023/07/15 04:29:13;;;;;;;2.97;2.77;;;21.80;99.90;;;;;;5041209;28;20218;-55
2023/07/15 04:31:42;;;;;;;4.27;2.63;;;21.80;99.90;;;;;;5045826;28;20190;-55
2023/07/15 04:34:10;;;;;;;3.50;3.40;;;21.90;99.90;;;;;;5044104;28;20313;-55
2023/07/15 04:36:37;;;;;;;2.80;2.50;;;21.90;99.90;;;;;;5034136;28;20244;-56
2023/07/15 04:39:05;;;;;;;3.90;3.10;;;22.00;99.90;;;;;;5040462;28;20621;-56
2023/07/15 04:41:33;;;;;;;2.90;2.70;;;22.10;99.90;;;;;;5030680;28;20226;-56
2023/07/15 04:44:00;;;;;;;3.23;2.73;;;22.10;99.90;;;;;;5030237;28;20201;-55
2023/07/15 04:46:27;;;;;;;2.57;2.37;;;22.20;99.90;;;;;;5031123;28;20814;-55
2023/07/15 04:48:54;;;;;;;2.83;2.60;;;22.20;99.90;;;;;;5035706;28;20295;-56
2023/07/15 04:51:23;;;;;;;3.43;3.00;;;22.30;99.90;;;;;;5035367;28;20242;-55
2023/07/15 04:53:50;;;;;;;2.33;2.30;;;22.30;99.90;;;;;;5036278;28;20202;-56
2023/07/15 04:56:17;;;;;;;2.63;2.43;;;22.30;99.90;;;;;;5037620;28;20194;-56
2023/07/15 04:58:44;;;;;;;3.33;3.13;;;22.30;99.90;;;;;;5040500;28;20561;-55
2023/07/15 05:01:11;;;;;;;3.97;3.43;;;22.30;99.90;;;;;;5031314;28;20198;-55
2023/07/15 05:03:38;;;;;;;2.50;2.33;;;22.40;99.90;;;;;;5042169;28;20198;-56
2023/07/15 05:06:05;;;;;;;2.93;2.83;;;22.50;99.90;;;;;;5039437;28;20269;-56
2023/07/15 05:08:33;;;;;;;3.00;2.90;;;22.70;99.90;;;;;;5030463;28;20223;-55
2023/07/15 05:11:00;;;;;;;3.73;3.10;;;22.80;99.90;;;;;;5032425;28;20202;-56
2023/07/15 05:13:27;;;;;;;3.00;2.87;;;22.90;99.90;;;;;;5032149;28;20199;-55
2023/07/15 05:15:56;;;;;;;3.57;3.47;;;23.20;99.90;;;;;;5030305;28;20755;-55
2023/07/15 05:18:23;;;;;;;3.20;2.90;;;23.50;99.90;;;;;;5031926;28;20222;-56
2023/07/15 05:20:50;;;;;;;2.93;2.73;;;24.00;99.90;;;;;;5030449;28;20260;-55
2023/07/15 05:23:17;;;;;;;4.13;3.10;;;24.70;99.90;;;;;;5030103;28;20205;-56
2023/07/15 05:25:46;;;;;;;4.20;3.17;;;25.50;99.90;;;;;;5030077;28;20198;-56
2023/07/15 05:28:12;;;;;;;3.17;3.07;;;26.30;99.90;;;;;;5030153;28;20284;-55
2023/07/15 05:30:40;;;;;;;2.70;2.60;;;27.10;99.90;;;;;;5032707;28;20203;-56
2023/07/15 05:33:06;;;;;;;2.72;2.53;;;27.60;99.90;;;;;;5036914;28;20286;-56
2023/07/15 05:35:34;;;;;;;2.87;2.67;;;28.10;99.90;;;;;;5046759;28;20197;-55
2023/07/15 05:38:01;;;;;;;2.47;2.38;;;28.40;99.90;;;;;;5030270;28;20268;-56
2023/07/15 05:40:28;;;;;;;6.00;2.70;;;28.70;99.90;;;;;;5030450;28;20206;-56
2023/07/15 05:42:56;;;;;;;3.42;2.95;;;29.00;99.90;;;;;;5036162;28;20588;-55
2023/07/15 05:45:23;;;;;;;2.83;2.70;;;28.90;99.90;;;;;;5043130;28;20278;-56
2023/07/15 05:47:50;;;;;;;3.05;2.72;;;28.90;99.90;;;;;;5040997;28;20226;-56
2023/07/15 05:50:17;;;;;;;3.22;2.85;;;29.20;99.90;;;;;;5038746;28;20198;-56
2023/07/15 05:52:45;;;;;;;2.95;2.85;;;29.70;99.90;;;;;;5042903;28;20210;-56
2023/07/15 05:55:12;;;;;;;2.15;2.15;;;29.70;99.90;;;;;;5032834;28;20244;-56
2023/07/15 05:57:43;;;;;;;2.97;2.88;;;29.60;99.90;;;;;;5038415;28;20224;-56
2023/07/15 06:00:13;;;;;;;3.17;2.97;;;29.20;99.90;;;;;;5034581;28;20708;-57
2023/07/15 06:02:45;;;;;;;2.75;2.63;;;29.70;99.90;;;;;;5034243;28;20238;-57
2023/07/15 06:05:12;;;;;;;2.72;2.53;;;30.10;99.90;;;;;;5033247;28;20619;-57
2023/07/15 06:07:39;;;;;;;3.00;2.80;;;30.30;99.90;;;;;;5039955;28;20226;-56
2023/07/15 06:10:07;;;;;;;2.55;2.38;;;30.60;99.90;;;;;;5044361;28;20836;-56
2023/07/15 06:12:34;;;;;;;2.85;2.75;;;30.70;99.90;;;;;;5047103;28;20201;-57
2023/07/15 06:15:01;;;;;;;3.60;2.72;;;31.00;99.90;;;;;;5041873;28;20664;-57
2023/07/15 06:17:30;;;;;;;3.55;3.20;;;31.30;99.90;;;;;;5052184;28;20304;-56
2023/07/15 06:19:58;;;;;;;3.00;2.90;;;31.50;99.90;;;;;;5040938;28;20631;-56
2023/07/15 06:22:25;;;;;;;2.83;2.42;;;31.90;99.90;;;;;;5046385;28;20233;-57
2023/07/15 06:24:52;;;;;;;2.45;2.35;;;32.20;99.90;;;;;;5046776;28;20568;-56
2023/07/15 06:27:19;;;;;;;3.00;2.90;;;32.10;99.80;;;;;;5046421;28;20222;-56
2023/07/15 06:29:48;;;;;;;3.45;2.53;;;32.70;99.70;;;;;;5040418;28;20213;-56
2023/07/15 06:32:17;;;;;;;3.55;3.28;;;33.10;99.60;;;;;;5044218;28;20205;-57
2023/07/15 06:34:45;;;;;;;2.40;2.33;;;33.20;99.30;;;;;;5045651;28;20195;-57
2023/07/15 06:37:12;;;;;;;2.78;2.67;;;33.30;98.40;;;;;;5042067;28;20260;-57
2023/07/15 06:39:39;;;;;;;2.22;2.13;;;33.20;97.40;;;;;;5044295;28;20205;-57
2023/07/15 06:42:06;;;;;;;2.08;1.90;;;32.60;96.20;;;;;;5041778;28;20660;-59
2023/07/15 06:44:33;;;;;;;2.67;2.60;;;32.70;97.90;;;;;;5048169;28;20289;-57
2023/07/15 06:47:01;;;;;;;2.65;2.55;;;33.00;98.60;;;;;;5048348;28;20253;-57
2023/07/15 06:49:28;;;;;;;3.95;2.30;;;33.40;95.90;;;;;;5044075;28;20241;-57
2023/07/15 06:51:56;;;;;;;2.70;2.50;;;33.30;96.80;;;;;;5043916;28;20202;-58
2023/07/15 06:54:24;;;;;;;3.90;3.60;;;33.50;96.40;;;;;;5039641;28;20206;-58
2023/07/15 06:56:51;;;;;;;2.78;2.67;;;32.90;97.00;;;;;;5044381;28;20630;-57
2023/07/15 06:59:20;;;;;;;3.47;3.25;;;33.10;97.40;;;;;;5040805;28;20232;-57
2023/07/15 07:01:47;;;;;;;2.95;2.40;;;33.40;96.90;;;;;;5041956;28;20201;-57
2023/07/15 07:04:14;;;;;;;3.05;2.85;;;33.70;96.30;;;;;;5040088;28;20682;-58
2023/07/15 07:06:41;;;;;;;3.22;3.03;;;34.00;97.80;;;;;;5040076;28;20222;-57
2023/07/15 07:09:09;;;;;;;3.13;2.90;;;33.90;96.10;;;;;;5037985;28;20218;-57
2023/07/15 07:11:36;;;;;;;2.35;2.17;;;33.80;95.90;;;;;;5040090;28;20283;-58
2023/07/15 07:14:04;;;;;;;3.20;3.10;;;34.20;96.20;;;;;;5034678;28;20234;-56
2023/07/15 07:16:31;;;;;;;3.08;2.97;;;34.30;97.40;;;;;;5037884;28;20770;-57
2023/07/15 07:18:58;;;;;;;3.10;3.00;;;34.30;95.70;;;;;;5038264;28;20275;-59
2023/07/15 07:21:25;;;;;;;4.45;3.28;;;34.70;95.70;;;;;;5037942;28;22106;-57
2023/07/15 07:23:55;;;;;;;3.13;3.03;;;35.20;94.30;;;;;;5046025;28;20229;-58
2023/07/15 07:26:23;;;;;;;3.13;2.92;;;35.00;94.10;;;;;;5049195;28;20201;-57
2023/07/15 07:28:50;;;;;;;3.08;2.97;;;34.80;94.20;;;;;;5050543;28;20230;-58
2023/07/15 07:31:18;;;;;;;3.67;2.67;;;34.70;93.90;;;;;;5049085;28;20255;-57
2023/07/15 07:33:46;;;;;;;2.83;2.72;;;35.10;95.30;;;;;;5047308;28;20252;-57
2023/07/15 07:36:14;;;;;;;3.40;3.10;;;35.10;95.10;;;;;;5041456;28;20230;-57
2023/07/15 07:38:41;;;;;;;3.05;2.72;;;35.30;93.40;;;;;;5047987;28;20229;-58
2023/07/15 07:41:09;;;;;;;3.10;3.00;;;35.30;93.70;;;;;;5051434;28;20198;-59
2023/07/15 07:43:39;;;;;;;2.83;2.70;;;35.40;93.60;;;;;;5044948;28;20229;-59
2023/07/15 07:46:09;;;;;;;4.05;3.50;;;35.80;95.70;;;;;;5048455;28;20546;-57
2023/07/15 07:48:36;;;;;;;3.65;2.38;;;35.50;91.10;;;;;;5052275;28;20275;-58
2023/07/15 07:51:03;;;;;;;2.85;2.15;;;35.60;92.00;;;;;;5045328;28;20205;-58
2023/07/15 07:53:30;;;;;;;3.28;3.17;;;35.80;92.10;;;;;;5047066;28;20206;-57
2023/07/15 07:55:57;;;;;;;4.72;3.05;;;35.80;90.40;;;;;;5051647;28;20205;-57
2023/07/15 07:58:27;;;;;;;3.30;3.00;;;36.20;92.40;;;;;;5051900;28;20788;-58
2023/07/15 08:00:56;;;;;;;2.83;2.58;;;36.60;93.50;;;;;;5052162;28;20582;-58
2023/07/15 08:03:23;;;;;;;5.95;2.88;;;36.80;92.70;;;;;;5050365;28;20205;-57
2023/07/15 08:05:50;;;;;;;5.07;4.30;;;37.20;91.00;;;;;;5043511;28;20209;-58
2023/07/15 08:08:17;;;;;;;2.90;2.80;;;36.90;92.40;;;;;;5051739;28;20236;-58
2023/07/15 08:10:44;;;;;;;2.38;2.38;;;37.00;91.80;;;;;;5052179;28;20220;-57
2023/07/15 08:13:12;;;;;;;3.20;2.42;;;36.70;86.90;;;;;;5050519;28;20206;-58
2023/07/15 08:15:39;;;;;;;3.55;3.28;;;36.60;90.30;;;;;;5043635;28;20691;-57
2023/07/15 08:18:08;;;;;;;3.47;3.17;;;36.70;87.70;;;;;;5051606;28;20213;-58
2023/07/15 08:20:37;;;;;;;2.63;2.53;;;37.00;86.10;;;;;;5051686;28;20259;-58
2023/07/15 08:23:04;;;;;;;3.20;2.97;;;37.00;87.40;;;;;;5050104;28;20206;-58
2023/07/15 08:25:31;;;;;;;4.50;4.18;;;37.20;89.20;;;;;;5049455;28;20206;-58
2023/07/15 08:27:58;;;;;;;2.92;2.83;;;37.30;88.90;;;;;;5051461;28;20229;-60
2023/07/15 08:30:25;;;;;;;3.28;3.00;;;37.70;86.50;;;;;;5051579;28;20206;-59
2023/07/15 08:32:52;;;;;;;2.53;2.42;;;37.60;84.90;;;;;;5049980;28;20737;-57
2023/07/15 08:35:21;;;;;;;4.32;3.10;;;37.80;86.90;;;;;;5042503;28;20198;-59
2023/07/15 08:37:48;;;;;;;3.30;3.08;;;37.70;87.40;;;;;;5051100;28;20275;-59
2023/07/15 08:40:17;;;;;;;3.58;3.33;;;37.80;87.90;;;;;;5051391;28;20201;-59
2023/07/15 08:42:44;;;;;;;3.13;2.80;;;37.60;84.80;;;;;;5053554;28;20201;-59
2023/07/15 08:45:12;;;;;;;3.55;3.33;;;37.40;82.90;;;;;;5051173;28;20703;-59
2023/07/15 08:47:44;;;;;;;3.78;3.42;;;37.40;86.30;;;;;;5052995;28;20253;-59
2023/07/15 08:50:15;;;;;;;3.25;3.10;;;37.40;86.40;;;;;;5043533;28;20208;-59
2023/07/15 08:52:45;;;;;;;3.05;2.80;;;37.70;88.00;;;;;;5049452;28;21843;-59
2023/07/15 08:55:13;;;;;;;3.65;3.35;;;37.80;89.70;;;;;;5043538;28;20201;-58
2023/07/15 08:57:41;;;;;;;4.07;3.78;;;38.00;85.50;;;;;;5051266;28;20587;-59
2023/07/15 09:00:10;;;;;;;2.90;2.80;;;38.40;81.90;;;;;;5049943;28;20659;-59
2023/07/15 09:02:37;;;;;;;3.85;3.55;;;38.10;83.00;;;;;;5049704;28;20294;-59
2023/07/15 09:05:07;;;;;;;3.00;2.90;;;38.10;82.70;;;;;;5050659;28;20245;-59
2023/07/15 09:07:46;;;;;;;12.55;4.05;;;38.00;81.40;;;;;;5051014;28;20253;-59
2023/07/15 09:10:14;;;;;;;3.58;3.38;;;37.80;84.50;;;;;;5051319;28;20206;-59
2023/07/15 09:12:46;;;;;;;3.80;3.00;;;37.90;81.40;;;;;;5048825;28;20486;-59
2023/07/15 09:15:14;;;;;;;3.65;3.35;;;37.90;83.60;;;;;;5042786;28;20343;-60
2023/07/15 09:17:51;;;;;;;3.30;3.10;;;37.50;81.00;;;;;;5051223;28;20232;-60
2023/07/15 09:20:20;;;;;;;2.75;2.58;;;37.50;83.60;;;;;;5050532;28;20569;-59
2023/07/15 09:22:53;;;;;;;3.10;2.83;;;37.10;85.70;;;;;;5048157;28;20248;-59
2023/07/15 09:25:22;;;;;;;3.75;3.55;;;37.00;82.40;;;;;;5049283;28;20204;-60
2023/07/15 09:27:49;;;;;;;2.72;2.63;;;37.10;82.80;;;;;;5045894;28;20217;-59
2023/07/15 09:30:17;;;;;;;3.13;2.75;;;37.20;84.50;;;;;;5035925;28;20576;-59
2023/07/15 09:32:44;;;;;;;3.13;3.03;;;36.90;80.40;;;;;;5037104;28;20225;-58
2023/07/15 09:35:13;;;;;;;3.28;3.17;;;37.00;83.40;;;;;;5032543;28;20240;-59
2023/07/15 09:37:41;;;;;;;2.97;2.78;;;37.40;84.30;;;;;;5030695;28;20287;-59
2023/07/15 09:40:11;;;;;;;3.40;3.15;;;37.30;84.80;;;;;;5034092;28;20202;-59
2023/07/15 09:42:54;;;;;;;2.80;2.67;;;37.50;84.50;;;;;;5030642;28;20214;-59
2023/07/15 09:45:34;;;;;;;2.85;2.65;;;38.10;81.20;;;;;;5042753;28;20276;-59
2023/07/15 09:48:02;;;;;;;3.15;3.05;;;38.40;84.80;;;;;;5042317;28;20246;-57
2023/07/15 09:50:29;;;;;;;3.35;3.15;;;38.60;85.20;;;;;;5050211;28;20206;-60
2023/07/15 09:52:59;;;;;;;3.13;3.03;;;39.10;82.50;;;;;;5052690;28;20260;-58
2023/07/15 09:55:29;;;;;;;3.80;3.50;;;39.20;83.30;;;;;;5046038;28;20194;-57
2023/07/15 09:58:03;;;;;;;3.28;3.17;;;39.00;74.10;;;;;;5050165;28;20679;-60
2023/07/15 10:00:35;;;;;;;3.28;3.00;;;38.90;76.80;;;;;;5052535;28;20206;-57
2023/07/15 10:03:04;;;;;;;3.08;2.70;;;38.40;76.10;;;;;;5050913;28;20194;-59
2023/07/15 10:05:32;;;;;;;2.22;2.05;;;38.40;78.00;;;;;;5053417;28;20686;-58
2023/07/15 10:08:00;;;;;;;4.20;2.85;;;38.70;76.30;;;;;;5054293;28;20234;-60
2023/07/15 10:10:28;;;;;;;3.55;3.08;;;38.40;74.10;;;;;;5053037;28;20202;-57
2023/07/15 10:12:56;;;;;;;3.05;2.95;;;38.60;76.90;;;;;;5047785;28;20228;-56
2023/07/15 10:15:24;;;;;;;2.60;2.50;;;38.80;77.80;;;;;;5053130;28;20208;-58
2023/07/15 10:17:52;;;;;;;2.88;2.67;;;39.00;74.40;;;;;;5052797;28;20225;-56
2023/07/15 10:20:19;;;;;;;3.70;3.28;;;38.90;73.80;;;;;;5053856;28;20343;-56
2023/07/15 10:22:49;;;;;;;2.63;2.53;;;39.10;81.10;;;;;;5050635;28;20201;-57
2023/07/15 10:25:17;;;;;;;3.15;2.95;;;39.10;74.50;;;;;;5045724;28;20206;-56
2023/07/15 10:27:47;;;;;;;3.58;3.38;;;39.10;69.40;;;;;;5053749;28;20226;-57
2023/07/15 10:30:23;;;;;;;2.85;2.72;;;38.60;73.10;;;;;;5053830;28;20209;-58
2023/07/15 10:33:12;;;;;;;2.35;2.33;;;38.80;73.00;;;;;;5046033;28;20255;-58
2023/07/15 10:35:53;;;;;;;2.88;2.78;;;38.60;73.20;;;;;;5051550;28;20586;-58
2023/07/15 10:38:27;;;;;;;2.70;2.50;;;38.90;73.90;;;;;;5050164;28;20216;-58
2023/07/15 10:40:59;;;;;;;2.35;2.25;;;39.10;70.20;;;;;;5050487;28;20584;-58
2023/07/15 10:43:39;;;;;;;4.75;2.85;;;38.90;67.90;;;;;;5050673;28;20197;-58
2023/07/15 10:46:08;;;;;;;3.75;2.47;;;38.30;70.00;;;;;;5048005;28;20259;-58
2023/07/15 10:48:35;;;;;;;2.88;2.78;;;38.20;70.00;;;;;;5042566;28;20695;-59
2023/07/15 10:51:05;;;;;;;3.05;2.95;;;38.00;67.00;;;;;;5042412;28;20687;-58
2023/07/15 10:53:33;;;;;;;2.72;2.63;;;38.10;71.10;;;;;;5045270;28;20279;-59
2023/07/15 10:56:02;;;;;;;3.55;3.35;;;38.20;74.40;;;;;;5052611;28;20194;-58
2023/07/15 10:58:30;;;;;;;4.70;2.90;;;38.20;70.60;;;;;;5052675;28;20226;-58
2023/07/15 11:01:03;;;;;;;2.95;2.72;;;38.10;71.30;;;;;;5049036;28;20560;-57
2023/07/15 11:03:32;;;;;;;2.90;2.60;;;37.70;73.00;;;;;;5050781;28;20267;-57
2023/07/15 11:06:01;;;;;;;3.33;2.95;;;37.40;69.80;;;;;;5048323;28;20210;-57
2023/07/15 11:08:29;;;;;;;2.85;2.13;;;37.10;72.20;;;;;;5046350;28;20229;-57
2023/07/15 11:10:59;;;;;;;2.78;2.58;;;36.80;72.40;;;;;;5041000;28;20194;-57
2023/07/15 11:13:27;;;;;;;2.45;2.35;;;36.80;73.10;;;;;;5042434;28;20251;-58
2023/07/15 11:15:54;;;;;;;3.30;3.00;;;36.70;72.40;;;;;;5044168;28;20202;-57
2023/07/15 11:18:24;;;;;;;3.17;2.88;;;36.40;69.10;;;;;;5045859;28;20265;-57
2023/07/15 11:20:53;;;;;;;2.60;2.40;;;36.30;70.50;;;;;;5046724;28;20293;-58
2023/07/15 11:23:21;;;;;;;2.60;2.40;;;36.30;75.10;;;;;;5035990;28;20202;-56
2023/07/15 11:25:48;;;;;;;4.00;2.80;;;36.20;71.10;;;;;;5036678;28;20692;-57
2023/07/15 11:28:15;;;;;;;2.75;2.55;;;36.20;73.60;;;;;;5043286;28;20249;-58
2023/07/15 11:30:44;;;;;;;2.88;2.67;;;36.20;74.00;;;;;;5036750;28;20206;-57
2023/07/15 11:33:12;;;;;;;2.53;2.33;;;36.30;75.10;;;;;;5036476;28;20213;-58
2023/07/15 11:35:42;;;;;;;2.65;2.60;;;36.30;74.20;;;;;;5039056;28;20198;-57
2023/07/15 11:38:13;;;;;;;2.25;2.13;;;35.90;69.70;;;;;;5047205;28;20301;-58
2023/07/15 11:40:52;;;;;;;2.00;2.00;;;35.70;73.60;;;;;;5051687;28;20271;-57
2023/07/15 11:43:20;;;;;;;2.85;2.50;;;35.60;70.80;;;;;;5048383;28;20202;-57
2023/07/15 11:45:47;;;;;;;2.70;2.60;;;35.60;76.00;;;;;;5051543;28;20198;-57
2023/07/15 11:48:21;;;;;;;2.92;2.30;;;35.60;71.50;;;;;;5051623;28;20213;-56
2023/07/15 11:50:49;;;;;;;4.10;2.70;;;35.50;72.50;;;;;;5049654;28;20226;-57
2023/07/15 11:53:26;;;;;;;3.13;2.83;;;35.40;74.70;;;;;;5050381;28;20248;-57
2023/07/15 11:55:53;;;;;;;2.70;2.60;;;35.20;71.10;;;;;;5046706;28;20647;-57
2023/07/15 11:58:41;;;;;;;2.63;2.33;;;35.20;76.40;;;;;;5051096;28;20284;-58
2023/07/15 12:01:12;;;;;;;2.53;2.42;;;35.20;71.20;;;;;;5048270;28;20244;-59
2023/07/15 12:03:40;;;;;;;3.15;2.38;;;35.10;66.30;;;;;;5049953;28;20664;-56
2023/07/15 12:06:15;;;;;;;2.58;2.55;;;35.00;71.80;;;;;;5042178;28;20201;-59
2023/07/15 12:08:42;;;;;;;3.10;2.80;;;35.10;75.40;;;;;;5046044;28;20459;-72
2023/07/15 12:11:16;;;;;;;5.07;2.53;;;35.10;73.50;;;;;;5047447;28;20724;-66
2023/07/15 12:13:43;;;;;;;2.45;2.35;;;35.10;72.00;;;;;;5039613;28;20226;-66
2023/07/15 12:16:10;;;;;;;2.75;2.65;;;35.10;73.90;;;;;;5032160;28;20241;-67
2023/07/15 12:18:37;;;;;;;2.97;2.00;;;35.00;71.90;;;;;;5042008;28;20641;-74
2023/07/15 12:21:04;;;;;;;2.15;2.05;;;35.00;72.80;;;;;;5040468;28;20229;-72
2023/07/15 12:23:32;;;;;;;2.20;2.10;;;35.00;68.60;;;;;;5039732;28;20206;-73
2023/07/15 12:25:59;;;;;;;2.72;2.60;;;34.90;72.60;;;;;;5041233;28;20199;-74
2023/07/15 12:28:27;;;;;;;2.60;2.58;;;34.90;71.30;;;;;;5049526;28;20276;-74
2023/07/15 12:30:54;;;;;;;2.22;2.22;;;34.90;73.00;;;;;;5041801;28;20205;-73
2023/07/15 12:33:21;;;;;;;2.72;2.58;;;34.90;69.40;;;;;;5043812;28;20288;-74
2023/07/15 12:35:48;;;;;;;2.83;2.63;;;34.90;72.90;;;;;;5045919;28;20212;-74
2023/07/15 12:38:15;;;;;;;2.97;2.88;;;34.90;72.80;;;;;;5041283;28;20218;-71
2023/07/15 12:40:43;;;;;;;2.40;2.38;;;34.90;70.50;;;;;;5043540;28;20197;-70
2023/07/15 12:43:10;;;;;;;2.25;2.25;;;34.80;73.00;;;;;;5044461;28;20194;-71
2023/07/15 12:45:37;;;;;;;3.38;3.05;;;34.90;72.10;;;;;;5036174;28;20321;-68
2023/07/15 12:48:05;;;;;;;2.08;1.98;;;34.90;73.40;;;;;;5034830;28;20282;-57
2023/07/15 12:50:32;;;;;;;2.80;2.60;;;34.90;72.30;;;;;;5044730;28;20206;-57
2023/07/15 12:52:59;;;;;;;1.80;1.80;;;34.80;69.80;;;;;;5044351;28;20209;-57